Time;durP1;ratioP1;P1;durP2;ratioP2;P2;SDS_P1;SDS_P2;PMS_P1;PMS_P2;Temp;Humidity;BMP_temperature;BMP_pressure;BME280_temperature;BME280_humidity;BME280_pressure;Samples;Min_cycle;Max_cycle;Signal;HPM_P1;HPM_P2
2023/08/26 00:00:23;;;;;;;11.53;10.93;;;19.50;99.90;;;;;;5019200;28;20186;-40
2023/08/26 00:02:48;;;;;;;11.47;10.87;;;19.40;99.90;;;;;;5020297;28;20182;-43
2023/08/26 00:05:14;;;;;;;12.50;11.77;;;19.40;99.90;;;;;;5020803;28;20212;-39
2023/08/26 00:07:39;;;;;;;11.77;10.77;;;19.40;99.90;;;;;;5020139;28;20285;-43
2023/08/26 00:10:06;;;;;;;11.43;10.93;;;19.40;99.90;;;;;;5020903;28;20285;-45
2023/08/26 00:12:31;;;;;;;11.07;10.47;;;19.40;99.90;;;;;;5020269;28;20186;-40
2023/08/26 00:14:57;;;;;;;11.67;11.07;;;19.40;99.90;;;;;;5019817;28;20894;-40
2023/08/26 00:17:23;;;;;;;12.00;11.20;;;19.30;99.90;;;;;;5019886;28;20252;-40
2023/08/26 00:19:50;;;;;;;11.67;11.07;;;19.40;99.90;;;;;;5019223;28;20185;-40
2023/08/26 00:22:17;;;;;;;11.40;10.90;;;19.30;99.90;;;;;;5020479;28;20457;-39
2023/08/26 00:24:43;;;;;;;12.03;11.20;;;19.40;99.90;;;;;;5019429;28;20583;-40
2023/08/26 00:27:09;;;;;;;11.97;11.27;;;19.30;99.90;;;;;;5020477;28;20421;-40
2023/08/26 00:29:34;;;;;;;11.97;11.27;;;19.30;99.90;;;;;;5018341;28;20305;-40
2023/08/26 00:32:00;;;;;;;13.00;12.10;;;19.30;99.90;;;;;;5018873;28;20657;-41
2023/08/26 00:34:26;;;;;;;11.63;10.90;;;19.30;99.90;;;;;;5020542;28;20194;-38
2023/08/26 00:36:51;;;;;;;11.53;10.93;;;19.30;99.90;;;;;;5020630;28;20569;-38
2023/08/26 00:39:17;;;;;;;11.40;10.90;;;19.30;99.90;;;;;;5019100;28;20186;-43
2023/08/26 00:41:42;;;;;;;11.77;11.17;;;19.30;99.90;;;;;;5019659;28;20213;-39
2023/08/26 00:44:08;;;;;;;12.43;11.83;;;19.30;99.90;;;;;;5019104;28;20212;-40
2023/08/26 00:46:35;;;;;;;11.93;11.30;;;19.30;99.90;;;;;;5019763;28;20293;-59
2023/08/26 00:49:00;;;;;;;12.20;11.50;;;19.30;99.90;;;;;;5020056;28;20197;-59
2023/08/26 00:51:27;;;;;;;12.67;11.70;;;19.30;99.90;;;;;;5019084;28;20441;-59
2023/08/26 00:53:53;;;;;;;12.20;11.43;;;19.30;99.90;;;;;;5022690;28;20767;-50
2023/08/26 00:56:20;;;;;;;12.40;11.43;;;19.30;99.90;;;;;;5024358;28;20472;-58
2023/08/26 00:58:46;;;;;;;11.93;11.33;;;19.30;99.90;;;;;;5022675;28;20862;-51
2023/08/26 01:01:11;;;;;;;12.03;11.40;;;19.30;99.90;;;;;;5022855;28;20437;-59
2023/08/26 01:03:38;;;;;;;11.43;10.83;;;19.30;99.90;;;;;;5024194;28;20189;-59
2023/08/26 01:06:03;;;;;;;12.43;11.57;;;19.20;99.90;;;;;;5022914;28;20186;-58
2023/08/26 01:08:30;;;;;;;12.27;11.57;;;19.20;99.90;;;;;;5022595;28;20514;-59
2023/08/26 01:11:07;;;;;;;13.50;12.60;;;19.20;99.90;;;;;;5021200;28;20186;-55
2023/08/26 01:13:44;;;;;;;13.60;12.70;;;19.20;99.90;;;;;;5021434;28;20433;-58
2023/08/26 01:16:13;;;;;;;12.70;12.00;;;19.20;99.90;;;;;;5023636;28;21337;-59
2023/08/26 01:18:40;;;;;;;13.20;12.30;;;19.20;99.90;;;;;;5023853;28;20475;-57
2023/08/26 01:21:08;;;;;;;13.07;12.17;;;19.20;99.90;;;;;;5024123;28;20441;-53
2023/08/26 01:23:38;;;;;;;13.60;12.80;;;19.30;99.90;;;;;;5023744;28;20803;-53
2023/08/26 01:26:04;;;;;;;13.70;12.90;;;19.30;99.90;;;;;;5023848;28;20485;-59
2023/08/26 01:28:30;;;;;;;13.93;13.13;;;19.20;99.90;;;;;;5022522;28;20432;-57
2023/08/26 01:31:17;;;;;;;13.70;13.00;;;19.30;99.90;;;;;;5022308;28;20186;-56
2023/08/26 01:33:57;;;;;;;14.00;13.13;;;19.40;99.90;;;;;;5022847;28;20654;-58
2023/08/26 01:36:25;;;;;;;13.67;12.87;;;19.40;99.90;;;;;;5022471;28;20470;-59
2023/08/26 01:38:52;;;;;;;14.40;13.60;;;19.50;99.90;;;;;;5023114;28;20432;-58
2023/08/26 01:41:19;;;;;;;15.73;14.53;;;19.60;99.90;;;;;;5023390;28;20482;-57
2023/08/26 01:43:47;;;;;;;14.53;13.50;;;19.60;99.90;;;;;;5023601;28;20428;-58
2023/08/26 01:46:14;;;;;;;14.43;13.60;;;19.70;99.90;;;;;;5023473;28;20846;-57
2023/08/26 01:48:40;;;;;;;14.43;13.50;;;19.70;99.90;;;;;;5021908;28;21601;-53
2023/08/26 01:51:05;;;;;;;14.50;13.63;;;19.80;99.90;;;;;;5022844;28;20437;-58
2023/08/26 01:53:31;;;;;;;14.40;13.50;;;19.80;99.90;;;;;;5023194;28;20217;-53
2023/08/26 01:55:56;;;;;;;13.97;13.17;;;19.90;99.90;;;;;;5023085;28;20684;-58
2023/08/26 01:58:22;;;;;;;14.53;13.53;;;19.90;99.90;;;;;;5021867;28;20236;-59
2023/08/26 02:00:47;;;;;;;14.57;13.47;;;20.00;99.90;;;;;;5021167;28;20209;-57
2023/08/26 02:03:13;;;;;;;15.00;14.10;;;20.00;99.90;;;;;;5022796;28;20186;-53
2023/08/26 02:05:38;;;;;;;14.87;13.77;;;20.10;99.90;;;;;;5021918;28;20186;-60
2023/08/26 02:08:04;;;;;;;14.97;14.17;;;20.10;99.90;;;;;;5019829;28;20293;-58
2023/08/26 02:10:30;;;;;;;14.90;14.00;;;20.10;99.90;;;;;;5015064;28;20767;-59
2023/08/26 02:12:56;;;;;;;14.83;13.93;;;20.20;99.90;;;;;;5022857;28;20190;-58
2023/08/26 02:15:21;;;;;;;15.47;14.43;;;20.20;99.90;;;;;;5022524;28;20217;-57
2023/08/26 02:17:47;;;;;;;14.70;13.70;;;20.30;99.90;;;;;;5021394;28;20194;-55
2023/08/26 02:20:13;;;;;;;14.37;13.57;;;20.30;99.90;;;;;;5018269;28;20183;-48
2023/08/26 02:22:38;;;;;;;15.03;14.13;;;20.40;99.90;;;;;;5021499;28;20499;-58
2023/08/26 02:25:04;;;;;;;15.20;14.30;;;20.40;99.90;;;;;;5022599;28;20226;-51
2023/08/26 02:27:30;;;;;;;15.17;14.10;;;20.50;99.90;;;;;;5022196;28;20194;-58
2023/08/26 02:29:56;;;;;;;15.80;14.80;;;20.60;99.90;;;;;;5023022;28;20430;-52
2023/08/26 02:32:21;;;;;;;15.80;14.90;;;20.60;99.90;;;;;;5022143;28;20198;-56
2023/08/26 02:34:47;;;;;;;14.73;13.83;;;20.60;99.90;;;;;;5022375;28;20190;-56
2023/08/26 02:37:12;;;;;;;15.27;14.47;;;20.70;99.90;;;;;;5022568;28;20210;-58
2023/08/26 02:39:38;;;;;;;15.50;14.60;;;20.70;99.90;;;;;;5022061;28;20564;-58
2023/08/26 02:42:04;;;;;;;16.07;15.17;;;20.70;99.90;;;;;;5022571;28;20190;-56
2023/08/26 02:44:29;;;;;;;15.47;14.50;;;20.80;99.90;;;;;;5022406;28;20214;-56
2023/08/26 02:46:55;;;;;;;15.17;14.17;;;20.80;99.90;;;;;;5021767;28;20274;-56
2023/08/26 02:49:21;;;;;;;16.80;15.23;;;20.80;99.90;;;;;;5010918;28;20260;-58
2023/08/26 02:51:46;;;;;;;14.50;13.70;;;20.80;99.90;;;;;;5022330;28;20202;-58
2023/08/26 02:54:12;;;;;;;15.53;14.63;;;20.90;99.90;;;;;;5022653;28;20539;-58
2023/08/26 02:56:37;;;;;;;16.00;15.10;;;20.90;99.90;;;;;;5022245;28;20209;-57
2023/08/26 02:59:03;;;;;;;15.77;14.77;;;21.00;99.90;;;;;;5020114;28;20187;-50
2023/08/26 03:01:30;;;;;;;16.60;15.47;;;21.00;99.90;;;;;;5017498;28;20648;-57
2023/08/26 03:03:57;;;;;;;16.17;15.07;;;21.00;99.90;;;;;;5021097;28;20633;-58
2023/08/26 03:06:22;;;;;;;15.97;15.07;;;21.10;99.90;;;;;;5021879;28;20420;-58
2023/08/26 03:08:48;;;;;;;15.10;14.10;;;21.20;99.90;;;;;;5020230;28;20799;-56
2023/08/26 03:11:14;;;;;;;15.30;14.30;;;21.20;99.90;;;;;;5021864;28;20179;-51
2023/08/26 03:13:39;;;;;;;15.90;15.00;;;21.20;99.90;;;;;;5021131;28;20198;-57
2023/08/26 03:16:07;;;;;;;15.57;14.57;;;21.10;99.90;;;;;;5014735;28;20700;-56
2023/08/26 03:18:33;;;;;;;15.20;14.30;;;21.20;99.90;;;;;;5019998;28;20509;-57
2023/08/26 03:21:09;;;;;;;21.83;15.80;;;21.20;99.90;;;;;;5021257;28;20444;-57
2023/08/26 03:23:35;;;;;;;16.47;15.37;;;21.20;99.90;;;;;;5021321;28;20230;-57
2023/08/26 03:26:01;;;;;;;15.27;14.40;;;21.20;99.90;;;;;;5021287;28;20433;-58
2023/08/26 03:28:27;;;;;;;16.10;15.10;;;21.20;99.90;;;;;;5019861;28;21002;-56
2023/08/26 03:30:53;;;;;;;15.20;14.27;;;21.20;99.90;;;;;;5020554;28;20515;-57
2023/08/26 03:33:18;;;;;;;16.17;15.20;;;21.20;99.90;;;;;;5021654;28;20244;-57
2023/08/26 03:35:44;;;;;;;15.10;14.20;;;21.20;99.90;;;;;;5021183;28;20770;-57
2023/08/26 03:38:09;;;;;;;16.30;15.30;;;21.30;99.90;;;;;;5020339;28;20210;-57
2023/08/26 03:40:39;;;;;;;16.30;15.30;;;21.20;99.90;;;;;;5021453;28;20193;-57
2023/08/26 03:43:05;;;;;;;16.03;15.03;;;21.30;99.90;;;;;;5020567;28;20183;-58
2023/08/26 03:45:31;;;;;;;16.37;15.37;;;21.30;99.90;;;;;;5021210;28;20454;-57
2023/08/26 03:47:57;;;;;;;16.50;15.30;;;21.30;99.90;;;;;;5019941;28;20493;-57
2023/08/26 03:50:22;;;;;;;16.73;15.73;;;21.40;99.90;;;;;;5018240;28;20440;-56
2023/08/26 03:52:48;;;;;;;17.43;16.33;;;21.40;99.90;;;;;;5020008;28;21188;-56
2023/08/26 03:55:14;;;;;;;17.80;16.70;;;21.40;99.90;;;;;;5019625;28;20198;-57
2023/08/26 03:57:39;;;;;;;18.67;17.50;;;21.40;99.90;;;;;;5019900;28;20194;-57
2023/08/26 04:00:06;;;;;;;18.70;17.60;;;21.40;99.90;;;;;;5013838;28;20183;-57
2023/08/26 04:02:31;;;;;;;19.43;18.23;;;21.30;99.90;;;;;;5019976;28;21168;-58
2023/08/26 04:04:57;;;;;;;21.13;19.77;;;21.20;99.90;;;;;;5021031;28;20492;-57
2023/08/26 04:07:22;;;;;;;21.07;19.67;;;21.10;99.90;;;;;;5020755;28;20186;-57
2023/08/26 04:09:48;;;;;;;20.90;19.40;;;21.10;99.90;;;;;;5019464;28;20187;-54
2023/08/26 04:12:14;;;;;;;21.63;20.23;;;21.00;99.90;;;;;;5020506;28;20202;-48
2023/08/26 04:14:39;;;;;;;21.53;20.27;;;21.00;99.90;;;;;;5020327;28;20197;-58
2023/08/26 04:17:05;;;;;;;21.73;20.40;;;21.00;99.90;;;;;;5019205;28;20222;-58
2023/08/26 04:19:32;;;;;;;21.80;20.30;;;20.90;99.90;;;;;;5018878;28;20559;-57
2023/08/26 04:22:00;;;;;;;20.30;19.03;;;20.80;99.90;;;;;;5020648;28;20792;-56
2023/08/26 04:24:25;;;;;;;21.20;19.90;;;20.70;99.90;;;;;;5020834;28;20457;-54
2023/08/26 04:26:51;;;;;;;22.23;20.60;;;20.80;99.90;;;;;;5019514;28;20532;-57
2023/08/26 04:29:16;;;;;;;22.70;21.20;;;20.70;99.90;;;;;;5019057;28;20712;-52
2023/08/26 04:31:42;;;;;;;22.33;20.90;;;20.70;99.90;;;;;;5020900;28;20256;-47
2023/08/26 04:34:07;;;;;;;21.53;20.23;;;20.70;99.90;;;;;;5020388;28;20182;-54
2023/08/26 04:36:33;;;;;;;22.87;21.17;;;20.70;99.90;;;;;;5020576;28;20292;-47
2023/08/26 04:38:59;;;;;;;23.23;21.57;;;20.70;99.90;;;;;;5019357;28;20270;-48
2023/08/26 04:41:24;;;;;;;24.17;22.57;;;20.60;99.90;;;;;;5020095;28;20210;-56
2023/08/26 04:43:53;;;;;;;23.83;22.13;;;20.50;99.90;;;;;;5020522;28;20345;-58
2023/08/26 04:46:19;;;;;;;25.67;23.93;;;20.50;99.90;;;;;;5019931;28;20240;-53
2023/08/26 04:48:44;;;;;;;22.97;21.47;;;20.40;99.90;;;;;;5019333;28;20433;-54
2023/08/26 04:51:10;;;;;;;23.13;21.53;;;20.40;99.90;;;;;;5020567;28;20431;-49
2023/08/26 04:53:36;;;;;;;23.10;21.60;;;20.30;99.90;;;;;;5019612;28;21162;-55
2023/08/26 04:56:03;;;;;;;23.70;22.00;;;20.40;99.90;;;;;;5019570;28;20339;-54
2023/08/26 04:58:30;;;;;;;25.00;23.00;;;20.30;99.90;;;;;;5019320;28;20182;-54
2023/08/26 05:00:56;;;;;;;23.53;21.83;;;20.30;99.90;;;;;;5017696;28;20937;-51
2023/08/26 05:03:22;;;;;;;23.37;21.77;;;20.40;99.90;;;;;;5020645;28;20413;-53
2023/08/26 05:05:47;;;;;;;22.97;21.37;;;20.40;99.90;;;;;;5020323;28;20194;-54
2023/08/26 05:08:13;;;;;;;24.60;23.00;;;20.40;99.90;;;;;;5020106;28;20193;-54
2023/08/26 05:10:39;;;;;;;24.50;22.70;;;20.40;99.90;;;;;;5018340;28;20560;-55
2023/08/26 05:13:05;;;;;;;24.60;22.87;;;20.30;99.90;;;;;;5018399;28;21039;-53
2023/08/26 05:15:32;;;;;;;24.17;22.47;;;20.40;99.90;;;;;;5020011;28;20460;-51
2023/08/26 05:17:57;;;;;;;24.80;23.00;;;20.40;99.90;;;;;;5019207;28;20206;-52
2023/08/26 05:20:23;;;;;;;24.27;22.47;;;20.40;99.90;;;;;;5017869;28;20475;-56
2023/08/26 05:22:48;;;;;;;25.83;24.10;;;20.40;99.90;;;;;;5017927;28;20190;-55
2023/08/26 05:25:14;;;;;;;25.00;23.20;;;20.40;99.90;;;;;;5018771;28;20277;-54
2023/08/26 05:27:40;;;;;;;25.13;23.43;;;20.30;99.90;;;;;;5020107;28;20221;-53
2023/08/26 05:30:06;;;;;;;26.17;24.20;;;20.30;99.90;;;;;;5019880;28;20578;-54
2023/08/26 05:32:31;;;;;;;24.83;23.10;;;20.20;99.90;;;;;;5020156;28;20182;-54
2023/08/26 05:34:57;;;;;;;25.60;23.80;;;20.20;99.90;;;;;;5019175;28;20926;-51
2023/08/26 05:37:23;;;;;;;25.37;23.50;;;20.20;99.90;;;;;;5017637;28;20179;-51
2023/08/26 05:39:49;;;;;;;26.93;25.03;;;20.20;99.90;;;;;;5022539;28;20186;-56
2023/08/26 05:42:14;;;;;;;27.00;25.30;;;20.20;99.90;;;;;;5021545;28;20448;-55
2023/08/26 05:44:40;;;;;;;26.33;24.43;;;20.20;99.90;;;;;;5020161;28;20193;-54
2023/08/26 05:47:05;;;;;;;27.23;25.43;;;20.20;99.90;;;;;;5022603;28;20888;-56
2023/08/26 05:49:31;;;;;;;25.33;23.63;;;20.20;99.90;;;;;;5023415;28;20205;-55
2023/08/26 05:51:57;;;;;;;26.63;24.73;;;20.20;99.90;;;;;;5023140;28;20233;-53
2023/08/26 05:54:22;;;;;;;25.80;24.20;;;20.20;99.90;;;;;;5021641;28;20218;-54
2023/08/26 05:56:48;;;;;;;26.23;24.53;;;20.20;99.90;;;;;;5021731;28;20849;-55
2023/08/26 05:59:13;;;;;;;28.20;26.33;;;20.20;99.90;;;;;;5020521;28;20229;-56
2023/08/26 06:01:39;;;;;;;25.30;23.63;;;20.20;99.90;;;;;;5019522;28;20205;-56
2023/08/26 06:04:05;;;;;;;25.20;23.60;;;20.20;99.90;;;;;;5021267;28;20208;-54
2023/08/26 06:06:31;;;;;;;24.70;23.00;;;20.10;99.90;;;;;;5009736;28;20182;-56
2023/08/26 06:08:57;;;;;;;25.10;23.50;;;20.20;99.90;;;;;;5016278;28;20498;-54
2023/08/26 06:11:23;;;;;;;25.07;23.37;;;20.20;99.90;;;;;;5019723;28;20183;-51
2023/08/26 06:13:49;;;;;;;25.03;23.43;;;20.20;99.90;;;;;;5022706;28;20178;-55
2023/08/26 06:16:19;;;;;;;25.73;24.13;;;20.20;99.90;;;;;;5021840;28;20469;-53
2023/08/26 06:18:47;;;;;;;25.20;23.40;;;20.30;99.90;;;;;;5020860;28;20182;-53
2023/08/26 06:21:13;;;;;;;27.80;26.00;;;20.30;99.90;;;;;;5020087;28;20451;-57
2023/08/26 06:23:38;;;;;;;23.63;22.03;;;20.30;99.90;;;;;;5021777;28;20464;-57
2023/08/26 06:26:04;;;;;;;24.93;23.23;;;20.30;99.90;;;;;;5021664;28;20194;-53
2023/08/26 06:28:30;;;;;;;25.27;23.77;;;20.30;99.90;;;;;;5020294;28;20219;-55
2023/08/26 06:30:59;;;;;;;22.83;21.23;;;20.30;99.90;;;;;;5020170;28;20194;-55
2023/08/26 06:33:26;;;;;;;24.33;22.67;;;20.30;99.90;;;;;;5019954;28;20546;-57
2023/08/26 06:35:52;;;;;;;24.20;22.60;;;20.20;99.90;;;;;;5021202;28;20468;-54
2023/08/26 06:38:18;;;;;;;24.67;23.07;;;20.20;99.90;;;;;;5021693;28;20432;-50
2023/08/26 06:40:43;;;;;;;25.03;23.33;;;20.10;99.90;;;;;;5020446;28;20476;-53
2023/08/26 06:43:09;;;;;;;24.43;22.73;;;20.10;99.90;;;;;;5022052;28;20449;-53
2023/08/26 06:45:35;;;;;;;24.17;22.53;;;20.00;99.90;;;;;;5018713;28;20187;-55
2023/08/26 06:48:00;;;;;;;24.07;22.37;;;20.00;99.90;;;;;;5013919;28;20208;-57
2023/08/26 06:50:26;;;;;;;24.47;22.53;;;20.10;99.90;;;;;;5020401;28;20195;-55
2023/08/26 06:52:52;;;;;;;22.17;20.80;;;20.10;99.90;;;;;;5021518;28;20185;-47
2023/08/26 06:55:20;;;;;;;24.47;22.87;;;20.20;99.90;;;;;;5021453;28;20534;-56
2023/08/26 06:57:46;;;;;;;22.83;21.23;;;20.20;99.90;;;;;;5021566;28;20656;-53
2023/08/26 07:00:13;;;;;;;24.20;22.60;;;20.20;99.90;;;;;;5019880;28;20433;-51
2023/08/26 07:02:39;;;;;;;23.80;22.10;;;20.30;99.90;;;;;;5020564;28;20174;-54
2023/08/26 07:05:05;;;;;;;23.53;21.93;;;20.30;99.90;;;;;;5019894;28;20429;-58
2023/08/26 07:07:30;;;;;;;24.80;23.00;;;20.30;99.90;;;;;;5021445;28;21184;-56
2023/08/26 07:09:56;;;;;;;24.20;22.60;;;20.40;99.90;;;;;;5019425;28;20405;-55
2023/08/26 07:12:22;;;;;;;23.40;21.70;;;20.30;99.90;;;;;;5020271;28;20183;-55
2023/08/26 07:14:47;;;;;;;23.13;21.43;;;20.30;99.90;;;;;;5020958;28;20202;-55
2023/08/26 07:17:17;;;;;;;23.53;21.97;;;20.40;99.90;;;;;;5020380;28;20259;-54
2023/08/26 07:19:42;;;;;;;22.50;21.00;;;20.40;99.90;;;;;;5020293;28;21243;-53
2023/08/26 07:22:08;;;;;;;22.73;20.93;;;20.50;99.90;;;;;;5020926;28;20437;-53
2023/08/26 07:24:33;;;;;;;21.80;20.30;;;20.60;99.90;;;;;;5016836;28;20233;-54
2023/08/26 07:26:59;;;;;;;21.33;19.80;;;20.70;99.90;;;;;;5020944;28;20194;-53
2023/08/26 07:29:25;;;;;;;20.40;19.10;;;20.80;99.90;;;;;;5021269;28;20700;-55
2023/08/26 07:31:50;;;;;;;20.57;19.20;;;20.80;99.90;;;;;;5018469;28;20256;-56
2023/08/26 07:34:16;;;;;;;20.80;19.30;;;21.00;99.90;;;;;;5017389;28;20194;-54
2023/08/26 07:36:41;;;;;;;21.10;19.70;;;21.10;99.90;;;;;;5018181;28;21028;-54
2023/08/26 07:39:08;;;;;;;20.70;19.27;;;21.10;99.90;;;;;;5020865;28;20272;-57
2023/08/26 07:41:35;;;;;;;20.40;18.87;;;21.20;99.90;;;;;;5020601;28;20186;-58
2023/08/26 07:44:00;;;;;;;20.67;19.20;;;21.40;99.90;;;;;;5020165;28;20425;-52
2023/08/26 07:46:26;;;;;;;18.70;17.40;;;21.50;99.90;;;;;;5018466;28;20496;-57
2023/08/26 07:48:51;;;;;;;19.80;18.50;;;21.60;99.90;;;;;;5020567;28;20178;-51
2023/08/26 07:51:17;;;;;;;19.23;18.23;;;21.70;99.90;;;;;;5021124;28;20187;-60
2023/08/26 07:53:43;;;;;;;16.90;16.00;;;21.80;99.90;;;;;;5020784;28;20251;-56
2023/08/26 07:56:09;;;;;;;17.17;15.97;;;21.80;99.90;;;;;;5021217;28;20499;-56
2023/08/26 07:58:34;;;;;;;17.77;16.77;;;21.90;99.90;;;;;;5021408;28;20182;-55
2023/08/26 08:01:00;;;;;;;17.57;16.47;;;22.10;99.90;;;;;;5020910;28;20181;-57
2023/08/26 08:03:26;;;;;;;16.97;15.97;;;22.30;99.90;;;;;;5018919;28;20193;-56
2023/08/26 08:05:51;;;;;;;16.47;15.47;;;22.50;99.90;;;;;;5016998;28;20192;-58
2023/08/26 08:08:17;;;;;;;16.90;15.90;;;22.70;99.90;;;;;;5017924;28;20210;-56
2023/08/26 08:10:43;;;;;;;18.00;16.80;;;23.00;99.90;;;;;;5019789;28;20217;-55
2023/08/26 08:13:09;;;;;;;17.10;16.10;;;23.20;99.90;;;;;;5019693;28;20652;-57
2023/08/26 08:15:34;;;;;;;16.70;15.70;;;23.50;99.90;;;;;;5019452;28;20252;-57
2023/08/26 08:18:02;;;;;;;16.60;15.60;;;23.70;99.90;;;;;;5019681;28;20178;-58
2023/08/26 08:20:28;;;;;;;15.50;14.70;;;24.10;99.90;;;;;;5019505;28;20228;-57
2023/08/26 08:22:53;;;;;;;15.23;14.33;;;24.30;99.90;;;;;;5019800;28;20433;-54
2023/08/26 08:25:19;;;;;;;15.07;14.20;;;24.60;99.90;;;;;;5020211;28;20492;-57
2023/08/26 08:27:44;;;;;;;15.40;14.60;;;24.80;99.90;;;;;;5021149;28;20190;-57
2023/08/26 08:30:10;;;;;;;14.13;13.33;;;24.90;99.90;;;;;;5020658;28;20190;-56
2023/08/26 08:32:36;;;;;;;14.93;14.10;;;25.10;99.90;;;;;;5020270;28;20182;-57
2023/08/26 08:35:03;;;;;;;15.10;14.30;;;25.20;99.90;;;;;;5020662;28;20266;-57
2023/08/26 08:37:28;;;;;;;14.10;13.30;;;25.40;99.90;;;;;;5020697;28;20528;-59
2023/08/26 08:39:54;;;;;;;14.40;13.60;;;25.50;99.90;;;;;;5020619;28;20418;-58
2023/08/26 08:42:22;;;;;;;14.30;13.60;;;25.60;99.90;;;;;;5020618;28;20213;-58
2023/08/26 08:44:48;;;;;;;14.07;13.37;;;25.90;99.90;;;;;;5020317;28;20522;-58
2023/08/26 08:47:15;;;;;;;13.80;13.00;;;25.90;99.90;;;;;;5020414;28;20434;-58
2023/08/26 08:49:42;;;;;;;13.70;13.00;;;25.90;99.90;;;;;;5020634;28;20415;-60
2023/08/26 08:52:08;;;;;;;13.97;13.27;;;26.10;99.90;;;;;;5020660;28;20421;-57
2023/08/26 08:54:35;;;;;;;13.60;13.00;;;26.40;99.90;;;;;;5020008;28;20413;-58
2023/08/26 08:57:03;;;;;;;14.57;13.77;;;26.60;99.90;;;;;;5020290;28;20198;-55
2023/08/26 08:59:32;;;;;;;14.50;13.70;;;26.80;99.90;;;;;;5020222;28;20479;-55
2023/08/26 09:01:59;;;;;;;13.87;13.20;;;27.10;99.90;;;;;;5019370;28;20421;-58
2023/08/26 09:04:25;;;;;;;13.63;12.93;;;27.30;99.90;;;;;;5019171;28;20472;-53
2023/08/26 09:06:54;;;;;;;13.93;13.23;;;27.70;99.90;;;;;;5019845;28;20457;-58
2023/08/26 09:09:20;;;;;;;14.30;13.40;;;27.80;99.90;;;;;;5020623;28;20471;-57
2023/08/26 09:11:47;;;;;;;14.10;13.40;;;27.40;99.90;;;;;;5020417;28;20420;-57
2023/08/26 09:14:13;;;;;;;13.27;12.47;;;27.10;99.90;;;;;;5021676;28;20420;-50
2023/08/26 09:16:41;;;;;;;12.67;12.07;;;27.20;99.90;;;;;;5024076;28;20465;-52
2023/08/26 09:19:13;;;;;;;11.90;11.30;;;26.70;99.90;;;;;;5024353;28;20182;-57
2023/08/26 09:21:43;;;;;;;11.83;11.23;;;26.70;99.90;;;;;;5024127;28;21685;-57
2023/08/26 09:24:15;;;;;;;12.37;11.77;;;26.30;99.90;;;;;;5024446;28;20461;-59
2023/08/26 09:26:42;;;;;;;12.13;11.53;;;26.30;99.90;;;;;;5022805;28;20974;-56
2023/08/26 09:29:14;;;;;;;13.00;12.40;;;26.30;99.90;;;;;;5023959;28;20421;-60
2023/08/26 09:31:49;;;;;;;12.87;12.13;;;26.10;99.90;;;;;;5023698;28;20430;-59
2023/08/26 09:34:29;;;;;;;12.13;11.53;;;26.10;99.90;;;;;;5022792;28;21189;-55
2023/08/26 09:36:56;;;;;;;11.60;11.00;;;26.00;99.90;;;;;;5023420;28;20472;-58
2023/08/26 09:39:21;;;;;;;12.20;11.60;;;26.00;99.90;;;;;;5023868;28;20761;-60
2023/08/26 09:41:48;;;;;;;13.07;12.37;;;25.90;99.90;;;;;;5023399;28;20422;-60
2023/08/26 09:44:16;;;;;;;12.60;12.00;;;25.90;99.90;;;;;;5023866;28;20625;-59
2023/08/26 09:46:43;;;;;;;13.97;13.20;;;26.10;99.90;;;;;;5023582;28;20523;-59
2023/08/26 09:49:13;;;;;;;14.03;13.33;;;26.50;99.90;;;;;;5022949;28;20436;-58
2023/08/26 09:51:52;;;;;;;12.43;11.83;;;26.80;99.60;;;;;;5021704;28;20783;-60
2023/08/26 09:54:21;;;;;;;13.00;12.30;;;27.30;98.40;;;;;;5023335;28;20486;-59
2023/08/26 09:56:48;;;;;;;13.17;12.57;;;27.30;97.60;;;;;;5018759;28;20472;-56
2023/08/26 09:59:14;;;;;;;12.87;12.27;;;27.40;96.80;;;;;;5020398;28;20429;-54
2023/08/26 10:01:41;;;;;;;12.43;11.83;;;28.00;94.50;;;;;;5018864;28;20918;-59
2023/08/26 10:04:12;;;;;;;12.83;12.13;;;28.40;92.00;;;;;;5020908;28;20447;-58
2023/08/26 10:06:55;;;;;;;12.00;11.40;;;28.40;92.50;;;;;;5023005;28;20463;-58
2023/08/26 10:09:34;;;;;;;13.73;12.83;;;28.40;92.00;;;;;;5020684;28;20476;-52
2023/08/26 10:12:05;;;;;;;13.50;12.90;;;28.10;92.40;;;;;;5015391;28;20796;-60
2023/08/26 10:14:33;;;;;;;13.23;12.60;;;28.00;92.20;;;;;;5022622;28;20519;-59
2023/08/26 10:17:02;;;;;;;13.13;12.47;;;27.80;92.60;;;;;;5020779;28;20469;-60
2023/08/26 10:19:29;;;;;;;13.47;12.77;;;27.90;92.30;;;;;;5020514;28;20441;-59
2023/08/26 10:21:56;;;;;;;13.17;12.47;;;27.80;87.00;;;;;;5021790;28;20440;-59
2023/08/26 10:24:22;;;;;;;14.13;13.23;;;27.80;86.30;;;;;;5009592;28;20473;-59
2023/08/26 10:26:48;;;;;;;13.73;13.07;;;27.70;85.90;;;;;;5022102;28;20421;-59
2023/08/26 10:29:14;;;;;;;12.90;12.20;;;27.60;89.20;;;;;;5022137;28;20194;-59
2023/08/26 10:31:42;;;;;;;13.63;12.83;;;27.50;91.50;;;;;;5020654;28;20437;-59
2023/08/26 10:34:08;;;;;;;14.07;13.37;;;27.80;90.60;;;;;;5022374;28;20418;-58
2023/08/26 10:36:35;;;;;;;13.13;12.50;;;27.70;88.00;;;;;;5020813;28;20511;-57
2023/08/26 10:39:02;;;;;;;12.70;12.00;;;27.60;84.60;;;;;;5021237;28;20214;-60
2023/08/26 10:41:29;;;;;;;11.90;11.23;;;27.60;81.40;;;;;;5022217;28;20535;-56
2023/08/26 10:43:58;;;;;;;13.43;12.53;;;27.50;79.90;;;;;;5021133;28;20437;-59
2023/08/26 10:46:34;;;;;;;13.07;12.37;;;27.20;83.00;;;;;;5020020;28;20938;-60
2023/08/26 10:49:00;;;;;;;12.60;11.80;;;27.10;81.20;;;;;;5021063;28;20531;-60
2023/08/26 10:51:26;;;;;;;12.50;11.90;;;27.30;79.10;;;;;;5021572;28;20449;-59
2023/08/26 10:53:52;;;;;;;13.20;12.40;;;27.80;77.20;;;;;;5021708;28;20452;-59
2023/08/26 10:56:21;;;;;;;12.17;11.50;;;28.10;71.50;;;;;;5020918;28;20518;-57
2023/08/26 10:58:48;;;;;;;12.40;11.70;;;28.00;70.40;;;;;;5011251;28;20313;-53
2023/08/26 11:01:16;;;;;;;12.00;11.20;;;28.50;71.80;;;;;;5021620;28;20507;-54
2023/08/26 11:03:45;;;;;;;11.87;11.10;;;28.40;66.70;;;;;;5021127;28;20448;-58
2023/08/26 11:06:18;;;;;;;11.83;11.10;;;28.60;64.70;;;;;;5020991;28;21565;-58
2023/08/26 11:08:52;;;;;;;12.10;11.37;;;29.10;65.40;;;;;;5021944;28;20429;-58
2023/08/26 11:11:18;;;;;;;11.70;11.10;;;30.10;61.60;;;;;;5021112;28;20885;-56
2023/08/26 11:13:45;;;;;;;12.20;11.60;;;30.70;53.00;;;;;;5021698;28;20460;-57
2023/08/26 11:16:11;;;;;;;11.50;10.90;;;31.00;54.70;;;;;;5019793;28;20267;-58
2023/08/26 11:18:37;;;;;;;12.43;11.67;;;31.80;53.60;;;;;;5021441;28;20428;-58
2023/08/26 11:21:04;;;;;;;11.30;10.80;;;32.60;47.30;;;;;;5016676;28;20190;-58
2023/08/26 11:23:31;;;;;;;11.30;10.70;;;33.00;47.20;;;;;;5019995;28;20292;-57
2023/08/26 11:25:56;;;;;;;11.30;10.70;;;33.90;44.00;;;;;;5021387;28;20516;-57
2023/08/26 11:28:22;;;;;;;11.10;10.60;;;34.40;40.10;;;;;;5021651;28;20453;-54
2023/08/26 11:30:49;;;;;;;11.57;11.07;;;34.20;39.10;;;;;;5019239;28;20268;-57
2023/08/26 11:33:16;;;;;;;10.90;10.30;;;33.90;39.80;;;;;;5019841;28;20186;-57
2023/08/26 11:35:43;;;;;;;10.00;9.50;;;34.60;40.90;;;;;;5020633;28;20468;-57
2023/08/26 11:38:09;;;;;;;10.47;9.97;;;34.70;37.00;;;;;;5021274;28;20536;-57
2023/08/26 11:40:35;;;;;;;10.70;10.10;;;34.30;36.90;;;;;;5020699;28;20938;-59
2023/08/26 11:43:13;;;;;;;11.67;10.97;;;34.50;39.50;;;;;;5014248;28;20465;-58
2023/08/26 11:45:42;;;;;;;10.43;9.93;;;34.90;39.20;;;;;;5018939;28;20452;-59
2023/08/26 11:48:11;;;;;;;11.10;10.50;;;35.60;38.50;;;;;;5020219;28;20578;-57
2023/08/26 11:50:37;;;;;;;10.73;10.20;;;36.10;36.60;;;;;;5020239;28;20962;-58
2023/08/26 11:53:03;;;;;;;11.53;10.97;;;36.40;35.40;;;;;;5021156;28;20409;-57
2023/08/26 11:55:30;;;;;;;10.30;9.80;;;36.50;36.00;;;;;;5019402;28;20471;-58
2023/08/26 11:57:57;;;;;;;11.63;11.03;;;36.80;33.90;;;;;;5021108;28;20432;-58
2023/08/26 12:00:23;;;;;;;11.83;11.13;;;37.30;32.70;;;;;;5020335;28;20421;-57
2023/08/26 12:02:55;;;;;;;11.20;10.70;;;37.50;32.20;;;;;;5019818;28;20464;-58
2023/08/26 12:05:21;;;;;;;11.90;11.33;;;37.90;29.90;;;;;;5016780;28;20433;-58
2023/08/26 12:07:48;;;;;;;11.10;10.60;;;38.10;30.30;;;;;;5020955;28;20424;-57
2023/08/26 12:10:17;;;;;;;11.30;10.70;;;37.90;30.40;;;;;;5017035;28;20684;-46
2023/08/26 12:12:44;;;;;;;11.00;10.40;;;38.10;29.60;;;;;;5018859;28;20429;-42
2023/08/26 12:15:19;;;;;;;11.23;10.73;;;37.60;29.50;;;;;;5019680;28;20464;-41
2023/08/26 12:17:46;;;;;;;11.83;11.23;;;36.80;31.30;;;;;;5019010;28;20444;-41
2023/08/26 12:20:22;;;;;;;11.50;11.00;;;35.80;31.70;;;;;;5018106;28;20437;-43
2023/08/26 12:22:48;;;;;;;11.83;11.23;;;34.80;32.10;;;;;;5018770;28;20482;-44
2023/08/26 12:25:18;;;;;;;12.07;11.40;;;34.20;34.90;;;;;;5019931;28;20463;-40